Time;durP1;ratioP1;P1;durP2;ratioP2;P2;SDS_P1;SDS_P2;PMS_P1;PMS_P2;Temp;Humidity;BMP_temperature;BMP_pressure;BME280_temperature;BME280_humidity;BME280_pressure;Samples;Min_cycle;Max_cycle;Signal;HPM_P1;HPM_P2
2023/08/14 00:01:08;;;;;;;0.00;0.00;;;16.50;99.90;;;;;;5022129;28;20030;-59
2023/08/14 00:03:34;;;;;;;0.00;0.00;;;16.60;99.90;;;;;;5016280;28;20049;-59
2023/08/14 00:05:59;;;;;;;0.00;0.00;;;16.60;99.90;;;;;;5024451;28;20061;-60
2023/08/14 00:08:25;;;;;;;0.00;0.00;;;16.60;99.90;;;;;;4996689;28;20026;-59
2023/08/14 00:10:50;;;;;;;0.00;0.00;;;16.50;99.90;;;;;;5014952;28;20041;-60
2023/08/14 00:13:20;;;;;;;0.00;0.00;;;16.50;99.90;;;;;;5000731;28;20025;-59
2023/08/14 00:15:46;;;;;;;0.00;0.00;;;16.60;99.90;;;;;;5000508;28;20338;-59
2023/08/14 00:18:12;;;;;;;0.00;0.00;;;16.60;99.90;;;;;;4994313;28;20022;-59
2023/08/14 00:20:38;;;;;;;0.00;0.00;;;16.70;99.90;;;;;;5002570;28;20048;-59
2023/08/14 00:23:03;;;;;;;0.00;0.00;;;16.60;99.90;;;;;;5006437;28;20025;-61
2023/08/14 00:25:29;;;;;;;0.00;0.00;;;16.60;99.90;;;;;;5013158;28;20033;-59
2023/08/14 00:27:55;;;;;;;0.00;0.00;;;16.50;99.90;;;;;;5004940;28;20034;-59
2023/08/14 00:30:20;;;;;;;0.00;0.00;;;16.50;99.90;;;;;;4999907;28;20475;-59
2023/08/14 00:32:46;;;;;;;0.00;0.00;;;16.10;99.90;;;;;;5022001;28;20041;-59
2023/08/14 00:35:12;;;;;;;0.00;0.00;;;16.40;99.90;;;;;;5003209;28;20038;-59
2023/08/14 00:37:45;;;;;;;0.00;0.00;;;15.60;99.90;;;;;;5000831;28;20041;-59
2023/08/14 00:40:13;;;;;;;0.00;0.00;;;16.50;99.90;;;;;;5003186;28;20029;-59
2023/08/14 00:42:39;;;;;;;0.00;0.00;;;16.40;99.90;;;;;;5004202;28;20033;-59
2023/08/14 00:45:09;;;;;;;0.00;0.00;;;;;;;;;;5009465;28;20044;-59
2023/08/14 00:47:35;;;;;;;0.00;0.00;;;16.40;99.90;;;;;;4997162;28;20346;-58
2023/08/14 00:50:06;;;;;;;0.00;0.00;;;16.30;99.90;;;;;;5007894;28;20034;-60
2023/08/14 00:52:40;;;;;;;0.00;0.00;;;16.30;99.90;;;;;;5019587;28;20481;-59
2023/08/14 00:55:13;;;;;;;0.00;0.00;;;16.30;99.90;;;;;;5019506;28;20026;-59
2023/08/14 00:57:39;;;;;;;0.00;0.00;;;16.30;99.90;;;;;;5023559;28;20038;-59
2023/08/14 01:00:07;;;;;;;0.00;0.00;;;16.20;99.90;;;;;;5011868;28;20367;-59
2023/08/14 01:02:34;;;;;;;0.00;0.00;;;16.20;99.90;;;;;;5002976;28;20061;-59
2023/08/14 01:05:00;;;;;;;0.00;0.00;;;16.20;99.90;;;;;;5019758;28;20362;-58
2023/08/14 01:07:25;;;;;;;0.00;0.00;;;16.30;99.90;;;;;;5010435;28;20034;-58
2023/08/14 01:09:52;;;;;;;0.00;0.00;;;16.20;99.90;;;;;;5013864;28;20033;-59
2023/08/14 01:12:45;;;;;;;0.00;0.00;;;16.10;99.90;;;;;;5006110;28;20064;-59
2023/08/14 01:15:20;;;;;;;0.00;0.00;;;16.20;99.90;;;;;;4999202;28;20034;-59
2023/08/14 01:17:55;;;;;;;0.00;0.00;;;16.00;99.90;;;;;;5022882;28;20038;-59
2023/08/14 01:20:24;;;;;;;0.00;0.00;;;16.00;99.90;;;;;;5005310;28;20042;-59
2023/08/14 01:23:25;;;;;;;0.00;0.00;;;16.20;99.90;;;;;;5022916;28;20496;-59
2023/08/14 01:25:52;;;;;;;0.00;0.00;;;16.10;99.90;;;;;;5011592;28;20034;-59
2023/08/14 01:28:19;;;;;;;0.00;0.00;;;16.00;99.90;;;;;;4993408;28;20035;-59
2023/08/14 01:30:45;;;;;;;0.00;0.00;;;16.00;99.90;;;;;;5007915;28;20048;-59
2023/08/14 01:33:10;;;;;;;0.00;0.00;;;16.20;99.90;;;;;;5010692;28;20030;-59
2023/08/14 01:35:41;;;;;;;0.00;0.00;;;16.00;99.90;;;;;;5002909;28;20117;-59
2023/08/14 01:38:28;;;;;;;0.00;0.00;;;16.00;99.90;;;;;;5003010;28;20125;-59
2023/08/14 01:41:25;;;;;;;0.00;0.00;;;15.90;99.90;;;;;;5004460;28;20030;-59
2023/08/14 01:43:57;;;;;;;0.00;0.00;;;15.80;99.90;;;;;;5017311;28;20068;-59
2023/08/14 01:46:25;;;;;;;0.00;0.00;;;15.90;99.90;;;;;;5001482;28;21734;-59
2023/08/14 01:48:54;;;;;;;0.00;0.00;;;15.90;99.90;;;;;;5003622;28;20682;-59
2023/08/14 01:51:21;;;;;;;0.00;0.00;;;15.90;99.90;;;;;;5011933;28;20034;-59
2023/08/14 01:53:47;;;;;;;0.00;0.00;;;15.80;99.90;;;;;;5007794;28;20538;-59
2023/08/14 01:56:12;;;;;;;0.00;0.00;;;15.80;99.90;;;;;;5015236;28;20160;-59
2023/08/14 01:58:38;;;;;;;0.00;0.00;;;15.70;99.90;;;;;;5027397;28;20038;-59
2023/08/14 02:01:04;;;;;;;0.00;0.00;;;15.90;99.90;;;;;;5009970;28;20038;-60
2023/08/14 02:03:30;;;;;;;0.00;0.00;;;15.90;99.90;;;;;;5018919;28;20064;-59
2023/08/14 02:05:55;;;;;;;0.00;0.00;;;15.90;99.90;;;;;;5025981;28;20111;-59
2023/08/14 02:08:21;;;;;;;0.00;0.00;;;15.80;99.90;;;;;;5013898;28;22492;-59
2023/08/14 02:10:47;;;;;;;0.00;0.00;;;;;;;;;;5015150;28;20025;-57
2023/08/14 02:13:13;;;;;;;0.00;0.00;;;15.70;99.90;;;;;;5006408;28;20053;-59
2023/08/14 02:15:38;;;;;;;0.00;0.00;;;15.60;99.90;;;;;;5010401;28;20025;-60
2023/08/14 02:18:04;;;;;;;0.00;0.00;;;15.80;99.90;;;;;;5017153;28;20037;-59
2023/08/14 02:20:30;;;;;;;0.00;0.00;;;16.40;99.90;;;;;;5006297;28;20256;-59
2023/08/14 02:22:55;;;;;;;0.00;0.00;;;15.70;99.90;;;;;;4997096;28;20030;-57
2023/08/14 02:25:21;;;;;;;0.00;0.00;;;15.60;99.90;;;;;;4995972;28;20100;-57
2023/08/14 02:27:46;;;;;;;0.00;0.00;;;15.60;99.90;;;;;;5019357;28;20261;-59
2023/08/14 02:30:12;;;;;;;0.00;0.00;;;15.60;99.90;;;;;;5004829;28;20316;-60
2023/08/14 02:32:38;;;;;;;0.00;0.00;;;15.70;99.90;;;;;;5014913;28;20042;-60
2023/08/14 02:35:04;;;;;;;0.00;0.00;;;15.60;99.90;;;;;;5014724;28;20037;-59
2023/08/14 02:37:29;;;;;;;0.00;0.00;;;15.50;99.90;;;;;;5011231;28;20049;-60
2023/08/14 02:39:55;;;;;;;0.00;0.00;;;15.60;99.90;;;;;;5006808;28;20063;-60
2023/08/14 02:42:21;;;;;;;0.00;0.00;;;15.60;99.90;;;;;;5007302;28;20069;-59
2023/08/14 02:44:47;;;;;;;0.00;0.00;;;15.70;99.90;;;;;;5004821;28;20077;-58
2023/08/14 02:47:12;;;;;;;0.00;0.00;;;15.70;99.90;;;;;;5005889;28;20038;-59
2023/08/14 02:49:38;;;;;;;0.00;0.00;;;15.50;99.90;;;;;;5019804;28;20117;-59
2023/08/14 02:52:04;;;;;;;0.00;0.00;;;15.40;99.90;;;;;;5024260;28;20030;-58
2023/08/14 02:54:34;;;;;;;0.00;0.00;;;;;;;;;;5004465;28;20052;-59
2023/08/14 02:57:02;;;;;;;0.00;0.00;;;15.20;99.90;;;;;;5005639;28;20029;-59
2023/08/14 02:59:27;;;;;;;0.00;0.00;;;15.40;99.90;;;;;;5025560;28;20120;-59
2023/08/14 03:01:55;;;;;;;0.00;0.00;;;15.50;99.90;;;;;;5024449;28;20029;-59
2023/08/14 03:04:21;;;;;;;0.00;0.00;;;15.40;99.90;;;;;;5005877;28;20038;-59
2023/08/14 03:06:47;;;;;;;0.00;0.00;;;15.40;99.90;;;;;;5006202;28;20065;-59
2023/08/14 03:09:12;;;;;;;0.00;0.00;;;15.40;99.90;;;;;;5007217;28;20034;-59
2023/08/14 03:11:38;;;;;;;0.00;0.00;;;15.40;99.90;;;;;;5002333;28;20512;-61
2023/08/14 03:14:04;;;;;;;0.00;0.00;;;15.30;99.90;;;;;;5012337;28;20039;-58
2023/08/14 03:16:29;;;;;;;0.00;0.00;;;15.40;99.90;;;;;;5026297;28;20057;-60
2023/08/14 03:18:55;;;;;;;0.00;0.00;;;15.40;99.90;;;;;;5006641;28;21105;-59
2023/08/14 03:21:20;;;;;;;0.00;0.00;;;15.30;99.90;;;;;;5008071;28;20037;-60
2023/08/14 03:23:48;;;;;;;0.00;0.00;;;15.20;99.90;;;;;;5009842;28;20046;-59
2023/08/14 03:26:14;;;;;;;0.00;0.00;;;15.30;99.90;;;;;;5008970;28;20040;-60
2023/08/14 03:28:40;;;;;;;0.00;0.00;;;15.30;99.90;;;;;;5003175;28;20034;-59
2023/08/14 03:31:05;;;;;;;0.00;0.00;;;15.20;99.90;;;;;;5010572;28;20104;-58
2023/08/14 03:33:33;;;;;;;0.00;0.00;;;15.30;99.90;;;;;;5025312;28;20037;-59
2023/08/14 03:36:01;;;;;;;0.00;0.00;;;;;;;;;;5025024;28;20073;-61
2023/08/14 03:38:27;;;;;;;0.00;0.00;;;15.10;99.90;;;;;;5021020;28;20505;-59
2023/08/14 03:40:53;;;;;;;0.00;0.00;;;15.30;99.90;;;;;;5001230;28;20070;-59
2023/08/14 03:43:18;;;;;;;0.00;0.00;;;15.30;99.90;;;;;;5021259;28;20042;-60
2023/08/14 03:45:44;;;;;;;0.00;0.00;;;15.10;99.90;;;;;;4999062;28;20109;-59
2023/08/14 03:48:09;;;;;;;0.00;0.00;;;15.10;99.90;;;;;;5003579;28;20034;-59
2023/08/14 03:50:35;;;;;;;0.00;0.00;;;15.10;99.90;;;;;;5012677;28;20037;-60
2023/08/14 03:53:00;;;;;;;0.00;0.00;;;15.10;99.90;;;;;;5016674;28;20041;-59
2023/08/14 03:55:26;;;;;;;0.00;0.00;;;15.20;99.90;;;;;;4993575;28;20500;-59
2023/08/14 03:57:52;;;;;;;0.00;0.00;;;15.10;99.90;;;;;;4994917;28;20041;-59
2023/08/14 04:00:17;;;;;;;0.00;0.00;;;15.20;99.90;;;;;;5001237;28;20115;-60
2023/08/14 04:02:43;;;;;;;0.00;0.00;;;15.10;99.90;;;;;;5021764;28;20025;-59
2023/08/14 04:05:09;;;;;;;0.00;0.00;;;15.10;99.90;;;;;;4997846;28;20401;-59
2023/08/14 04:07:34;;;;;;;0.00;0.00;;;15.30;99.90;;;;;;5008214;28;20044;-60
2023/08/14 04:10:00;;;;;;;0.00;0.00;;;15.10;99.90;;;;;;5032834;28;20483;-60
2023/08/14 04:12:25;;;;;;;0.00;0.00;;;15.20;99.90;;;;;;5014598;28;20629;-58
2023/08/14 04:14:51;;;;;;;0.00;0.00;;;15.10;99.90;;;;;;4999402;28;20121;-60
2023/08/14 04:17:17;;;;;;;0.00;0.00;;;15.00;99.90;;;;;;5019267;28;20195;-59
2023/08/14 04:19:43;;;;;;;0.00;0.00;;;15.00;99.90;;;;;;5006249;28;20066;-60
2023/08/14 04:22:08;;;;;;;0.00;0.00;;;15.10;99.90;;;;;;5000728;28;20045;-60
2023/08/14 04:24:34;;;;;;;0.00;0.00;;;15.10;99.90;;;;;;5001409;28;20085;-59
2023/08/14 04:26:59;;;;;;;0.00;0.00;;;15.10;99.90;;;;;;4990651;28;20034;-58
2023/08/14 04:29:25;;;;;;;0.00;0.00;;;15.00;99.90;;;;;;4993972;28;20119;-60
2023/08/14 04:31:51;;;;;;;0.00;0.00;;;15.00;99.90;;;;;;5010291;28;20041;-59
2023/08/14 04:34:16;;;;;;;0.00;0.00;;;14.90;99.90;;;;;;5023611;28;20049;-59
2023/08/14 04:36:42;;;;;;;0.00;0.00;;;15.00;99.90;;;;;;5003648;28;20038;-59
2023/08/14 04:39:07;;;;;;;0.00;0.00;;;15.10;99.90;;;;;;4992823;28;20034;-60
2023/08/14 04:41:33;;;;;;;0.00;0.00;;;15.00;99.90;;;;;;5003856;28;20429;-59
2023/08/14 04:43:59;;;;;;;0.00;0.00;;;14.90;99.90;;;;;;5013424;28;20428;-60
2023/08/14 04:46:28;;;;;;;0.00;0.00;;;15.00;99.90;;;;;;5010095;28;20482;-60
2023/08/14 04:48:53;;;;;;;0.00;0.00;;;15.00;99.90;;;;;;5010341;28;20095;-60
2023/08/14 04:51:19;;;;;;;0.00;0.00;;;15.00;99.90;;;;;;5009000;28;20565;-59
2023/08/14 04:53:44;;;;;;;0.00;0.00;;;15.00;99.90;;;;;;5005281;28;20025;-59
2023/08/14 04:56:10;;;;;;;0.00;0.00;;;14.90;99.90;;;;;;4993453;28;20034;-60
2023/08/14 04:58:36;;;;;;;0.00;0.00;;;15.00;99.90;;;;;;5016358;28;20044;-59
2023/08/14 05:01:01;;;;;;;0.00;0.00;;;15.20;99.90;;;;;;5021709;28;20036;-59
2023/08/14 05:03:27;;;;;;;0.00;0.00;;;15.10;99.90;;;;;;5018084;28;20514;-59
2023/08/14 05:05:52;;;;;;;0.00;0.00;;;15.30;99.90;;;;;;5022770;28;20022;-59
2023/08/14 05:08:18;;;;;;;0.00;0.00;;;15.20;99.90;;;;;;5006554;28;20029;-59
2023/08/14 05:10:52;;;;;;;0.00;0.00;;;15.30;99.90;;;;;;4998963;28;20092;-60
2023/08/14 05:13:18;;;;;;;0.00;0.00;;;15.20;99.90;;;;;;4997059;28;20069;-60
2023/08/14 05:15:46;;;;;;;0.00;0.00;;;15.10;99.90;;;;;;5000304;28;20113;-59
2023/08/14 05:18:11;;;;;;;0.00;0.00;;;15.10;99.90;;;;;;5003351;28;20121;-59
2023/08/14 05:20:37;;;;;;;0.00;0.00;;;15.30;99.90;;;;;;5006939;28;20167;-59
2023/08/14 05:23:03;;;;;;;0.00;0.00;;;15.20;99.90;;;;;;5007021;28;20034;-59
2023/08/14 05:25:28;;;;;;;0.00;0.00;;;15.30;99.90;;;;;;5004098;28;20073;-59
2023/08/14 05:27:54;;;;;;;0.00;0.00;;;15.60;99.90;;;;;;5012549;28;20045;-60
2023/08/14 05:30:19;;;;;;;0.00;0.00;;;15.50;99.90;;;;;;5002006;28;20045;-59
2023/08/14 05:32:46;;;;;;;0.00;0.00;;;16.00;99.90;;;;;;5000448;28;20514;-58
2023/08/14 05:35:12;;;;;;;0.00;0.00;;;15.80;99.90;;;;;;5010503;28;20401;-60
2023/08/14 05:37:40;;;;;;;0.00;0.00;;;;;;;;;;5010494;28;20040;-59
2023/08/14 05:40:06;;;;;;;0.00;0.00;;;;;;;;;;4995808;28;20117;-59
2023/08/14 05:42:33;;;;;;;0.00;0.00;;;;;;;;;;5008038;28;20042;-60
2023/08/14 05:45:00;;;;;;;0.00;0.00;;;;;;;;;;5002382;28;20042;-60
2023/08/14 05:47:27;;;;;;;0.00;0.00;;;;;;;;;;4985072;28;20042;-60
2023/08/14 05:49:52;;;;;;;0.00;0.00;;;16.60;99.90;;;;;;4988641;28;20033;-60
2023/08/14 05:52:19;;;;;;;0.00;0.00;;;;;;;;;;5001364;28;20524;-61
2023/08/14 05:54:46;;;;;;;0.00;0.00;;;;;;;;;;5008943;28;20116;-60
2023/08/14 05:57:11;;;;;;;0.00;0.00;;;17.00;99.90;;;;;;4996090;28;20046;-60
2023/08/14 05:59:37;;;;;;;0.00;0.00;;;17.10;99.90;;;;;;5004745;28;20116;-60
2023/08/14 06:02:03;;;;;;;0.00;0.00;;;17.20;99.90;;;;;;5002691;28;20029;-60
2023/08/14 06:04:28;;;;;;;0.00;0.00;;;17.40;99.90;;;;;;4995698;28;20401;-60
2023/08/14 06:06:54;;;;;;;0.00;0.00;;;17.30;99.90;;;;;;5013905;28;20041;-60
2023/08/14 06:09:19;;;;;;;0.00;0.00;;;17.50;99.90;;;;;;5019193;28;20329;-60
2023/08/14 06:11:45;;;;;;;0.00;0.00;;;17.70;99.90;;;;;;5000177;28;20030;-60
2023/08/14 06:14:11;;;;;;;0.00;0.00;;;17.60;99.90;;;;;;4987308;28;20530;-58
2023/08/14 06:16:36;;;;;;;0.00;0.00;;;17.80;99.90;;;;;;5007531;28;20042;-60
2023/08/14 06:19:02;;;;;;;0.00;0.00;;;17.90;99.90;;;;;;4995007;28;20293;-60
2023/08/14 06:21:28;;;;;;;0.00;0.00;;;17.90;99.90;;;;;;5003104;28;20524;-60
2023/08/14 06:23:53;;;;;;;0.00;0.00;;;17.90;99.90;;;;;;5000510;28;20042;-60
2023/08/14 06:26:19;;;;;;;0.00;0.00;;;17.90;99.90;;;;;;5000216;28;20282;-59
2023/08/14 06:28:44;;;;;;;0.00;0.00;;;18.10;99.90;;;;;;5003243;28;20045;-60
2023/08/14 06:31:10;;;;;;;0.00;0.00;;;18.00;99.90;;;;;;4994928;28;20038;-60
2023/08/14 06:33:35;;;;;;;0.00;0.00;;;18.00;99.90;;;;;;4997597;28;20038;-59
2023/08/14 06:36:01;;;;;;;0.00;0.00;;;18.30;99.90;;;;;;4995627;28;20054;-60
2023/08/14 06:38:27;;;;;;;0.00;0.00;;;18.30;99.90;;;;;;5007056;28;20119;-60
2023/08/14 06:40:53;;;;;;;0.00;0.00;;;18.10;99.90;;;;;;5000692;28;20049;-60
2023/08/14 06:43:20;;;;;;;0.00;0.00;;;18.20;99.90;;;;;;5005861;28;20034;-60
2023/08/14 06:45:47;;;;;;;0.00;0.00;;;18.10;99.90;;;;;;4999617;28;20112;-60
2023/08/14 06:48:13;;;;;;;0.00;0.00;;;18.30;99.90;;;;;;5005819;28;20045;-60
2023/08/14 06:50:39;;;;;;;0.00;0.00;;;18.20;99.90;;;;;;5006058;28;20117;-61
2023/08/14 06:53:04;;;;;;;0.00;0.00;;;18.40;99.90;;;;;;5005860;28;20516;-60
2023/08/14 06:55:30;;;;;;;0.00;0.00;;;18.50;99.90;;;;;;4997367;28;20034;-60
2023/08/14 06:57:55;;;;;;;0.00;0.00;;;18.40;99.90;;;;;;5000817;28;20034;-60
2023/08/14 07:00:21;;;;;;;0.00;0.00;;;18.30;99.90;;;;;;5003226;28;20044;-60
2023/08/14 07:02:47;;;;;;;0.00;0.00;;;18.50;99.90;;;;;;5004544;28;20040;-60
2023/08/14 07:05:13;;;;;;;0.00;0.00;;;18.40;99.90;;;;;;5005912;28;20560;-59
2023/08/14 07:07:39;;;;;;;0.00;0.00;;;18.40;99.90;;;;;;5004139;28;20034;-60
2023/08/14 07:10:05;;;;;;;0.00;0.00;;;18.30;99.90;;;;;;5003265;28;20069;-60
2023/08/14 07:12:31;;;;;;;0.00;0.00;;;18.40;99.90;;;;;;5002208;28;20037;-59
2023/08/14 07:14:57;;;;;;;0.00;0.00;;;18.30;99.90;;;;;;5003787;28;20084;-60
2023/08/14 07:17:23;;;;;;;0.00;0.00;;;18.50;99.90;;;;;;5003929;28;20107;-60
2023/08/14 07:19:49;;;;;;;0.00;0.00;;;18.50;99.90;;;;;;5007307;28;20376;-59
2023/08/14 07:22:14;;;;;;;0.00;0.00;;;18.40;99.90;;;;;;5024965;28;20037;-60
2023/08/14 07:24:40;;;;;;;0.00;0.00;;;18.70;99.90;;;;;;5025276;28;20386;-60
2023/08/14 07:27:05;;;;;;;0.00;0.00;;;18.70;99.90;;;;;;5025177;28;20032;-60
2023/08/14 07:29:31;;;;;;;0.00;0.00;;;18.70;99.90;;;;;;5025699;28;20080;-60
2023/08/14 07:31:57;;;;;;;0.00;0.00;;;18.60;99.90;;;;;;5024701;28;20043;-60
2023/08/14 07:34:22;;;;;;;0.00;0.00;;;18.60;99.90;;;;;;5023962;28;20442;-60
2023/08/14 07:36:48;;;;;;;0.00;0.00;;;18.70;99.90;;;;;;5025169;28;20037;-60
2023/08/14 07:39:13;;;;;;;0.00;0.00;;;18.70;99.90;;;;;;5025196;28;20056;-60
2023/08/14 07:41:39;;;;;;;0.00;0.00;;;18.90;99.90;;;;;;5023766;28;20043;-60
2023/08/14 07:44:05;;;;;;;0.00;0.00;;;18.80;99.90;;;;;;5024203;28;20043;-59
2023/08/14 07:46:30;;;;;;;0.00;0.00;;;18.70;99.90;;;;;;5024964;28;20245;-60
2023/08/14 07:48:56;;;;;;;0.00;0.00;;;18.80;99.90;;;;;;5023516;28;20026;-59
2023/08/14 07:51:22;;;;;;;0.00;0.00;;;18.80;99.90;;;;;;5024205;28;20038;-60
2023/08/14 07:53:47;;;;;;;0.00;0.00;;;18.90;99.90;;;;;;5025280;28;20461;-60
2023/08/14 07:56:13;;;;;;;0.00;0.00;;;19.00;99.90;;;;;;5021698;28;20033;-59
2023/08/14 07:58:41;;;;;;;0.00;0.00;;;19.20;99.90;;;;;;5021711;28;20045;-60
2023/08/14 08:01:07;;;;;;;0.00;0.00;;;19.30;99.90;;;;;;5017080;28;20430;-60
2023/08/14 08:03:32;;;;;;;0.00;0.00;;;19.30;99.90;;;;;;4998447;28;20040;-59
2023/08/14 08:05:58;;;;;;;0.00;0.00;;;19.30;99.90;;;;;;5017085;28;20068;-60
2023/08/14 08:08:24;;;;;;;0.00;0.00;;;19.40;99.90;;;;;;5001041;28;20053;-60
2023/08/14 08:10:49;;;;;;;0.00;0.00;;;19.60;99.90;;;;;;5020028;28;20025;-59
2023/08/14 08:13:15;;;;;;;0.00;0.00;;;19.60;99.90;;;;;;5024436;28;20676;-60
2023/08/14 08:15:40;;;;;;;0.00;0.00;;;19.70;99.90;;;;;;5014993;28;20029;-60
2023/08/14 08:18:06;;;;;;;0.00;0.00;;;19.60;99.90;;;;;;4990213;28;20026;-60
2023/08/14 08:20:32;;;;;;;0.00;0.00;;;19.60;99.90;;;;;;5015121;28;20101;-60
2023/08/14 08:22:57;;;;;;;0.00;0.00;;;19.60;99.90;;;;;;5019116;28;20558;-59
2023/08/14 08:25:23;;;;;;;0.00;0.00;;;19.60;99.90;;;;;;5011349;28;20465;-59
2023/08/14 08:27:48;;;;;;;0.00;0.00;;;19.70;99.90;;;;;;5000450;28;20375;-60
2023/08/14 08:30:14;;;;;;;0.00;0.00;;;19.90;99.90;;;;;;5000715;28;20321;-60
2023/08/14 08:32:39;;;;;;;0.00;0.00;;;20.20;99.90;;;;;;5003071;28;20091;-60
2023/08/14 08:35:05;;;;;;;0.00;0.00;;;20.30;99.90;;;;;;5012331;28;20041;-60
2023/08/14 08:37:31;;;;;;;0.00;0.00;;;20.30;99.90;;;;;;5003362;28;20057;-60
2023/08/14 08:39:56;;;;;;;0.00;0.00;;;20.30;99.90;;;;;;5004554;28;20040;-60
2023/08/14 08:42:22;;;;;;;0.00;0.00;;;20.40;99.90;;;;;;5007595;28;20152;-59
2023/08/14 08:44:52;;;;;;;0.00;0.00;;;20.50;99.90;;;;;;5015293;28;20051;-61
2023/08/14 08:47:22;;;;;;;0.00;0.00;;;20.70;99.90;;;;;;5000959;28;20127;-60
2023/08/14 08:49:49;;;;;;;0.00;0.00;;;20.80;99.90;;;;;;5004691;28;20034;-60
2023/08/14 08:52:15;;;;;;;0.00;0.00;;;20.90;99.90;;;;;;5010243;28;20042;-60
2023/08/14 08:54:40;;;;;;;0.00;0.00;;;20.90;99.90;;;;;;5010761;28;20034;-60
2023/08/14 08:57:06;;;;;;;0.00;0.00;;;21.00;99.90;;;;;;5013426;28;20030;-60
2023/08/14 08:59:33;;;;;;;0.00;0.00;;;21.10;99.90;;;;;;5013061;28;20072;-60
2023/08/14 09:01:59;;;;;;;0.00;0.00;;;21.10;99.90;;;;;;5007887;28;20096;-60
2023/08/14 09:04:24;;;;;;;0.00;0.00;;;21.20;99.90;;;;;;5002007;28;20499;-60
2023/08/14 09:06:50;;;;;;;0.00;0.00;;;21.30;99.90;;;;;;4990825;28;20038;-60
2023/08/14 09:09:16;;;;;;;0.00;0.00;;;21.40;99.90;;;;;;4999147;28;20095;-61
2023/08/14 09:11:42;;;;;;;0.00;0.00;;;21.40;99.90;;;;;;5005485;28;20045;-59
2023/08/14 09:14:08;;;;;;;0.00;0.00;;;21.50;99.90;;;;;;4999080;28;20029;-60
2023/08/14 09:16:33;;;;;;;0.00;0.00;;;21.60;99.90;;;;;;5004129;28;20029;-59
2023/08/14 09:19:00;;;;;;;0.00;0.00;;;21.60;99.90;;;;;;5000843;28;20057;-60
2023/08/14 09:21:27;;;;;;;0.00;0.00;;;21.70;99.90;;;;;;5004073;28;20492;-60
2023/08/14 09:23:54;;;;;;;0.00;0.00;;;21.80;99.90;;;;;;5002621;28;20034;-59
2023/08/14 09:26:20;;;;;;;0.00;0.00;;;21.90;99.90;;;;;;5003677;28;20045;-60
2023/08/14 09:28:46;;;;;;;0.00;0.00;;;22.00;99.90;;;;;;5000712;28;20036;-60
2023/08/14 09:31:13;;;;;;;0.00;0.00;;;22.00;99.90;;;;;;5004850;28;20022;-60
2023/08/14 09:33:42;;;;;;;0.00;0.00;;;22.10;99.90;;;;;;5002381;28;20518;-60
2023/08/14 09:36:09;;;;;;;0.00;0.00;;;22.20;99.90;;;;;;5003503;28;20038;-60
2023/08/14 09:38:35;;;;;;;0.00;0.00;;;22.30;99.90;;;;;;5001122;28;20042;-60
2023/08/14 09:41:01;;;;;;;0.00;0.00;;;22.40;99.90;;;;;;5005320;28;20444;-60
2023/08/14 09:43:29;;;;;;;0.00;0.00;;;22.50;99.90;;;;;;5023908;28;20109;-60
2023/08/14 09:45:57;;;;;;;0.00;0.00;;;22.60;99.90;;;;;;5024160;28;20050;-60
2023/08/14 09:48:37;;;;;;;0.00;0.00;;;22.60;99.90;;;;;;5015266;28;20041;-59
2023/08/14 09:51:03;;;;;;;0.00;0.00;;;22.70;99.90;;;;;;5017151;28;20453;-60
2023/08/14 09:53:29;;;;;;;0.00;0.00;;;22.60;99.90;;;;;;5020967;28;20161;-61
2023/08/14 09:55:55;;;;;;;0.00;0.00;;;22.70;99.90;;;;;;5002637;28;20112;-60
2023/08/14 09:58:20;;;;;;;0.00;0.00;;;22.70;99.90;;;;;;5002581;28;20030;-59
2023/08/14 10:00:48;;;;;;;0.00;0.00;;;22.80;99.90;;;;;;5004254;28;20184;-60
2023/08/14 10:03:14;;;;;;;0.00;0.00;;;22.80;99.90;;;;;;5004677;28;20060;-60
2023/08/14 10:05:40;;;;;;;0.00;0.00;;;22.80;99.90;;;;;;5037426;28;20034;-60
2023/08/14 10:08:08;;;;;;;0.00;0.00;;;22.90;99.90;;;;;;5022701;28;20038;-60
2023/08/14 10:10:36;;;;;;;0.00;0.00;;;22.90;99.90;;;;;;5019168;28;20366;-59
2023/08/14 10:13:05;;;;;;;0.00;0.00;;;23.00;99.90;;;;;;5012018;28;20034;-59
2023/08/14 10:15:41;;;;;;;0.00;0.00;;;23.10;99.90;;;;;;5015911;28;20049;-60
2023/08/14 10:18:19;;;;;;;0.00;0.00;;;23.00;99.90;;;;;;5007072;28;20121;-59
2023/08/14 10:20:46;;;;;;;0.00;0.00;;;23.00;99.90;;;;;;5006103;28;20376;-59
2023/08/14 10:23:13;;;;;;;0.00;0.00;;;23.20;99.90;;;;;;5002959;28;20469;-59
2023/08/14 10:25:39;;;;;;;0.00;0.00;;;23.20;99.90;;;;;;5007617;28;20069;-59
2023/08/14 10:28:07;;;;;;;0.00;0.00;;;23.20;99.90;;;;;;5007729;28;20040;-60
2023/08/14 10:30:35;;;;;;;0.00;0.00;;;23.30;99.90;;;;;;5007323;28;20088;-60
2023/08/14 10:33:02;;;;;;;0.00;0.00;;;23.30;99.90;;;;;;5004098;28;20549;-60
2023/08/14 10:35:28;;;;;;;0.00;0.00;;;23.40;99.90;;;;;;5007408;28;20660;-60
2023/08/14 10:37:55;;;;;;;0.00;0.00;;;23.30;99.90;;;;;;5007603;28;20056;-60
2023/08/14 10:40:23;;;;;;;0.00;0.00;;;23.40;99.90;;;;;;5006987;28;20438;-60
2023/08/14 10:42:56;;;;;;;0.00;0.00;;;23.50;99.90;;;;;;5006803;28;20480;-60
2023/08/14 10:45:24;;;;;;;0.00;0.00;;;23.60;99.90;;;;;;5006649;28;20048;-60
2023/08/14 10:47:51;;;;;;;0.00;0.00;;;23.40;99.90;;;;;;5008081;28;20371;-61
2023/08/14 10:50:23;;;;;;;0.00;0.00;;;23.50;99.90;;;;;;5006590;28;20120;-61
2023/08/14 10:52:52;;;;;;;0.00;0.00;;;23.50;99.90;;;;;;5006314;28;20070;-60
2023/08/14 10:55:42;;;;;;;0.00;0.00;;;23.60;99.90;;;;;;5008719;28;20412;-60
2023/08/14 10:58:35;;;;;;;0.00;0.00;;;23.60;99.90;;;;;;5008353;28;20683;-60
2023/08/14 11:01:11;;;;;;;0.00;0.00;;;23.60;99.90;;;;;;5006725;28;20690;-60
2023/08/14 11:04:04;;;;;;;0.00;0.00;;;23.70;99.90;;;;;;5012403;28;20038;-60
2023/08/14 11:07:01;;;;;;;0.00;0.00;;;23.70;99.90;;;;;;5014304;28;20033;-60
2023/08/14 11:09:31;;;;;;;0.00;0.00;;;23.80;99.90;;;;;;5010170;28;20053;-60
2023/08/14 11:12:00;;;;;;;0.00;0.00;;;23.80;99.90;;;;;;5011088;28;20121;-61
2023/08/14 11:14:26;;;;;;;0.00;0.00;;;23.90;99.90;;;;;;5005988;28;20125;-60
2023/08/14 11:16:52;;;;;;;0.00;0.00;;;23.80;99.90;;;;;;5006991;28;20338;-60
2023/08/14 11:19:19;;;;;;;0.00;0.00;;;23.90;99.90;;;;;;5006205;28;20057;-61
2023/08/14 11:21:51;;;;;;;0.00;0.00;;;24.00;99.90;;;;;;5006048;28;20117;-60
2023/08/14 11:24:16;;;;;;;0.00;0.00;;;23.90;99.90;;;;;;4996317;28;20038;-61
2023/08/14 11:26:42;;;;;;;0.00;0.00;;;24.10;99.90;;;;;;5001139;28;20041;-60
2023/08/14 11:29:07;;;;;;;0.00;0.00;;;24.10;99.90;;;;;;5005239;28;20034;-60
2023/08/14 11:31:34;;;;;;;0.00;0.00;;;24.00;99.90;;;;;;5014433;28;20037;-60
2023/08/14 11:33:59;;;;;;;0.00;0.00;;;24.10;99.90;;;;;;5005545;28;20030;-60
2023/08/14 11:36:25;;;;;;;0.00;0.00;;;24.10;99.90;;;;;;5001440;28;20030;-60
2023/08/14 11:38:51;;;;;;;0.00;0.00;;;24.20;99.90;;;;;;5008382;28;20052;-59
2023/08/14 11:41:17;;;;;;;0.00;0.00;;;24.30;99.90;;;;;;5012967;28;20049;-60
2023/08/14 11:43:45;;;;;;;0.00;0.00;;;24.40;99.90;;;;;;5011698;28;20026;-59
2023/08/14 11:46:11;;;;;;;0.00;0.00;;;24.40;99.90;;;;;;5024623;28;20037;-59
2023/08/14 11:48:38;;;;;;;0.00;0.00;;;24.40;99.90;;;;;;5021920;28;20120;-59
2023/08/14 11:51:05;;;;;;;0.00;0.00;;;24.50;99.90;;;;;;5017806;28;20547;-60
2023/08/14 11:53:31;;;;;;;0.00;0.00;;;24.50;99.90;;;;;;5023590;28;20025;-59
2023/08/14 11:55:57;;;;;;;0.00;0.00;;;24.50;99.90;;;;;;5024223;28;23394;-60
2023/08/14 11:58:22;;;;;;;0.00;0.00;;;24.60;99.90;;;;;;5020329;28;20140;-60
2023/08/14 12:00:51;;;;;;;0.00;0.00;;;24.50;99.90;;;;;;5024464;28;20044;-60
2023/08/14 12:03:18;;;;;;;0.00;0.00;;;24.60;99.90;;;;;;5024453;28;20041;-60
2023/08/14 12:05:47;;;;;;;0.00;0.00;;;24.80;99.90;;;;;;5021064;28;20397;-60
2023/08/14 12:08:13;;;;;;;0.00;0.00;;;24.80;99.90;;;;;;5022605;28;20509;-60
2023/08/14 12:10:40;;;;;;;0.00;0.00;;;24.90;99.90;;;;;;5024988;28;20042;-59
2023/08/14 12:13:06;;;;;;;0.00;0.00;;;24.90;99.90;;;;;;5024874;28;20025;-59
2023/08/14 12:15:31;;;;;;;0.00;0.00;;;24.80;99.90;;;;;;5024872;28;20092;-59
2023/08/14 12:17:57;;;;;;;0.00;0.00;;;24.80;99.90;;;;;;5025576;28;20401;-59
2023/08/14 12:20:23;;;;;;;0.00;0.00;;;24.80;99.90;;;;;;5023979;28;20037;-60
2023/08/14 12:22:49;;;;;;;0.00;0.00;;;24.70;99.90;;;;;;5024845;28;20481;-60
2023/08/14 12:25:19;;;;;;;0.00;0.00;;;24.80;99.90;;;;;;5024739;28;20042;-60
2023/08/14 12:27:45;;;;;;;0.00;0.00;;;24.80;99.90;;;;;;5020946;28;20083;-59
2023/08/14 12:30:11;;;;;;;0.00;0.00;;;24.90;99.90;;;;;;5022246;28;20042;-60
2023/08/14 12:32:45;;;;;;;0.00;0.00;;;24.90;99.90;;;;;;5005295;28;20458;-59
2023/08/14 12:35:10;;;;;;;0.00;0.00;;;24.80;99.90;;;;;;5004299;28;20041;-60
2023/08/14 12:37:36;;;;;;;0.00;0.00;;;24.80;99.90;;;;;;5010154;28;20038;-60
2023/08/14 12:40:08;;;;;;;0.00;0.00;;;24.80;99.90;;;;;;5009060;28;20514;-60
2023/08/14 12:42:34;;;;;;;0.00;0.00;;;24.90;99.90;;;;;;5003778;28;20490;-60
2023/08/14 12:44:59;;;;;;;0.00;0.00;;;25.00;99.90;;;;;;5004989;28;20068;-60
2023/08/14 12:47:25;;;;;;;0.00;0.00;;;25.00;99.90;;;;;;5003690;28;20065;-60
2023/08/14 12:49:51;;;;;;;0.00;0.00;;;25.00;99.90;;;;;;5014843;28;20038;-60